Time;durP1;ratioP1;P1;durP2;ratioP2;P2;SDS_P1;SDS_P2;PMS_P1;PMS_P2;Temp;Humidity;BMP_temperature;BMP_pressure;BME280_temperature;BME280_humidity;BME280_pressure;Samples;Min_cycle;Max_cycle;Signal;HPM_P1;HPM_P2
2022/01/28 00:02:53;;;;;;;66.88;51.63;;;;;;;;;;4969072;28;20070;-85
2022/01/28 00:05:21;;;;;;;55.65;49.70;;;;;;;;;;4983276;28;20494;-86
2022/01/28 00:07:47;;;;;;;57.83;48.80;;;;;;;;;;5009748;28;20109;-85
2022/01/28 00:10:12;;;;;;;60.83;50.43;;;;;;;;;;4996716;28;20038;-85
2022/01/28 00:12:52;;;;;;;69.82;50.83;;;;;;;;;;4999001;28;20560;-85
2022/01/28 00:15:25;;;;;;;60.10;50.28;;;;;;;;;;4999871;28;20036;-86
2022/01/28 00:18:22;;;;;;;56.88;50.83;;;;;;;;;;4999379;28;20195;-86
2022/01/28 00:21:04;;;;;;;54.08;48.40;;;;;;;;;;5000491;28;20025;-85
2022/01/28 00:39:36;;;;;;;55.63;49.55;;;;;;;;;;5002046;28;20038;-87
2022/01/28 00:42:01;;;;;;;56.30;49.20;;;;;;;;;;5006141;28;20034;-85
2022/01/28 00:44:26;;;;;;;52.67;47.13;;;;;;;;;;5004029;28;20034;-85
2022/01/28 00:46:52;;;;;;;62.53;49.23;;;;;;;;;;5000083;28;20026;-85
2022/01/28 00:49:17;;;;;;;62.40;48.20;;;;;;;;;;4992152;28;20032;-87
2022/01/28 00:51:42;;;;;;;53.33;47.90;;;;;;;;;;5001381;28;20031;-85
2022/01/28 00:54:07;;;;;;;54.00;48.40;;;;;;;;;;5009200;28;20027;-86
2022/01/28 00:56:33;;;;;;;53.67;47.90;;;;;;;;;;5012384;28;20113;-86
2022/01/28 00:58:58;;;;;;;54.03;48.43;;;;;;;;;;5020283;28;20018;-84
2022/01/28 01:01:23;;;;;;;58.30;49.07;;;;;;;;;;5017876;28;20022;-85
2022/01/28 01:03:48;;;;;;;56.07;49.33;;;;;;;;;;5005471;28;19995;-85
2022/01/28 01:06:13;;;;;;;53.27;47.53;;;;;;;;;;5017073;28;20035;-85
2022/01/28 01:08:39;;;;;;;55.60;49.60;;;;;;;;;;5019408;28;20034;-84
2022/01/28 01:11:05;;;;;;;60.63;49.33;;;;;;;;;;5019545;28;20037;-83
2022/01/28 01:13:34;;;;;;;54.35;48.63;;;;;;;;;;5013902;28;20075;-84
2022/01/28 01:16:03;;;;;;;68.35;49.90;;;;;;;;;;5015812;28;20025;-86
2022/01/28 01:18:45;;;;;;;55.28;49.47;;;;;;;;;;5012223;28;20005;-84
2022/01/28 01:21:16;;;;;;;55.22;48.80;;;;;;;;;;5016408;28;20078;-84
2022/01/28 01:23:50;;;;;;;54.53;48.50;;;;;;;;;;5016325;28;20014;-85
2022/01/28 01:26:15;;;;;;;61.03;49.00;;;;;;;;;;4997198;28;20019;-86
2022/01/28 01:28:41;;;;;;;64.27;50.67;;;;;;;;;;5004354;28;20026;-85
2022/01/28 01:31:10;;;;;;;65.63;50.53;;;;;;;;;;5009927;28;20050;-86
2022/01/28 01:33:45;;;;;;;74.20;50.42;;;;;;;;;;5018203;28;20034;-84
2022/01/28 01:36:10;;;;;;;57.67;49.20;;;;;;;;;;5018763;28;20002;-85
2022/01/28 01:38:42;;;;;;;64.80;49.40;;;;;;;;;;5017605;28;20025;-83
2022/01/28 01:41:16;;;;;;;67.35;49.65;;;;;;;;;;5004018;28;20029;-84
2022/01/28 01:44:03;;;;;;;54.10;48.30;;;;;;;;;;5010431;28;20045;-84
2022/01/28 01:52:05;;;;;;;55.92;48.10;;;;;;;;;;5010380;28;20025;-86
2022/01/28 01:54:30;;;;;;;;;;;;;;;;;;5017053;28;20031;-84
2022/01/28 01:56:56;;;;;;;71.18;51.55;;;;;;;;;;5017355;28;19897;-85
2022/01/28 01:59:21;;;;;;;67.87;51.40;;;;;;;;;;5009395;28;20038;-85
2022/01/28 02:01:46;;;;;;;63.70;48.80;;;;;;;;;;5013389;28;20037;-86
2022/01/28 02:04:11;;;;;;;64.37;48.70;;;;;;;;;;5008980;28;20033;-85
2022/01/28 02:06:38;;;;;;;69.03;50.37;;;;;;;;;;5001443;28;20564;-85
2022/01/28 02:09:06;;;;;;;54.80;48.88;;;;;;;;;;5009040;28;20015;-85
2022/01/28 02:11:31;;;;;;;60.25;50.38;;;;;;;;;;5005677;28;20038;-86
2022/01/28 02:13:56;;;;;;;63.70;49.90;;;;;;;;;;5009910;28;20026;-85
2022/01/28 02:16:22;;;;;;;53.90;48.00;;;;;;;;;;5001854;28;20441;-85
2022/01/28 02:18:48;;;;;;;55.07;48.17;;;;;;;;;;4988171;28;20030;-86
2022/01/28 02:21:16;;;;;;;64.85;50.28;;;;;;;;;;4996829;28;20076;-86
2022/01/28 02:23:43;;;;;;;54.92;48.00;;;;;;;;;;4996978;28;20069;-86
2022/01/28 02:26:14;;;;;;;57.92;48.50;;;;;;;;;;5007265;28;20019;-86
2022/01/28 02:28:40;;;;;;;56.22;48.50;;;;;;;;;;4996938;28;20026;-86
2022/01/28 02:31:05;;;;;;;54.08;48.20;;;;;;;;;;4990873;28;20022;-86
2022/01/28 02:33:31;;;;;;;60.08;50.03;;;;;;;;;;4997543;28;20434;-86
2022/01/28 02:36:03;;;;;;;63.83;50.70;;;;;;;;;;4998957;28;20640;-86
2022/01/28 02:38:28;;;;;;;57.03;48.70;;;;;;;;;;4998014;28;20026;-85
2022/01/28 02:40:59;;;;;;;58.67;49.73;;;;;;;;;;4992773;28;20019;-86
2022/01/28 02:46:12;;;;;;;54.70;48.65;;;;;;;;;;5003428;28;20018;-87
2022/01/28 02:48:40;;;;;;;56.72;49.17;;;;;;;;;;4997761;28;20022;-86
2022/01/28 02:51:16;;;;;;;73.88;52.25;;;;;;;;;;4997443;28;20022;-86
2022/01/28 02:53:45;;;;;;;54.80;48.57;;;;;;;;;;4998480;28;20053;-86
2022/01/28 02:56:23;;;;;;;61.60;49.25;;;;;;;;;;4996407;28;20077;-86
2022/01/28 02:58:49;;;;;;;59.15;49.90;;;;;;;;;;4992074;28;20113;-86
2022/01/28 03:01:15;;;;;;;59.58;48.03;;;;;;;;;;4999439;28;20053;-86
2022/01/28 03:03:41;;;;;;;55.88;49.75;;;;;;;;;;5015776;28;20022;-86
2022/01/28 03:06:07;;;;;;;60.92;49.22;;;;;;;;;;5000039;28;20018;-86
2022/01/28 03:08:33;;;;;;;57.83;48.63;;;;;;;;;;4996098;28;20184;-85
2022/01/28 03:16:28;;;;;;;64.90;49.35;;;;;;;;;;5007135;28;20127;-87
2022/01/28 03:19:24;;;;;;;57.67;49.03;;;;;;;;;;5001487;28;20034;-86
2022/01/28 03:21:55;;;;;;;62.00;48.78;;;;;;;;;;4998660;28;20038;-86
2022/01/28 03:24:21;;;;;;;63.00;49.90;;;;;;;;;;4994758;28;20022;-85
2022/01/28 03:26:51;;;;;;;72.80;50.72;;;;;;;;;;5003943;28;20114;-86
2022/01/28 03:29:17;;;;;;;69.93;50.80;;;;;;;;;;5000470;28;20085;-85
2022/01/28 03:31:42;;;;;;;64.37;49.60;;;;;;;;;;5002615;28;20109;-84
2022/01/28 03:34:07;;;;;;;55.53;49.30;;;;;;;;;;5012743;28;20041;-84
2022/01/28 03:36:32;;;;;;;58.03;49.33;;;;;;;;;;5010483;28;20339;-84
2022/01/28 03:38:57;;;;;;;56.93;48.57;;;;;;;;;;5008990;28;20026;-83
2022/01/28 03:41:24;;;;;;;61.37;49.53;;;;;;;;;;5001040;28;20053;-83
2022/01/28 03:43:49;;;;;;;59.67;49.35;;;;;;;;;;5000062;28;20018;-83
2022/01/28 03:46:15;;;;;;;53.80;48.10;;;;;;;;;;4996921;28;20030;-83
2022/01/28 03:48:40;;;;;;;61.13;49.42;;;;;;;;;;4991822;28;20017;-84
2022/01/28 03:51:06;;;;;;;63.25;49.38;;;;;;;;;;5003564;28;20089;-85
2022/01/28 03:53:35;;;;;;;55.13;48.47;;;;;;;;;;4998654;28;20018;-87
2022/01/28 03:56:00;;;;;;;54.83;48.65;;;;;;;;;;4998736;28;20019;-85
2022/01/28 03:58:25;;;;;;;59.00;49.53;;;;;;;;;;4999168;28;20394;-85
2022/01/28 04:00:52;;;;;;;62.67;49.43;;;;;;;;;;5009155;28;20030;-86
2022/01/28 04:11:32;;;;;;;56.47;49.38;;;;;;;;;;4996967;28;20450;-86
2022/01/28 04:19:55;;;;;;;58.20;49.50;;;;;;;;;;5007180;28;20049;-87
2022/01/28 04:22:21;;;;;;;54.60;48.22;;;;;;;;;;5003700;28;20042;-86
2022/01/28 04:24:52;;;;;;;59.43;49.03;;;;;;;;;;4999333;28;20018;-85
2022/01/28 04:27:35;;;;;;;60.92;49.95;;;;;;;;;;5006066;28;20604;-85
2022/01/28 04:30:06;;;;;;;54.28;48.58;;;;;;;;;;5011859;28;20030;-86
2022/01/28 04:32:32;;;;;;;57.20;49.03;;;;;;;;;;5008489;28;20050;-85
2022/01/28 04:34:59;;;;;;;54.10;48.22;;;;;;;;;;5014195;28;20085;-86
2022/01/28 04:40:03;;;;;;;56.25;49.35;;;;;;;;;;5008702;28;20026;-85
2022/01/28 04:42:52;;;;;;;56.70;48.92;;;;;;;;;;5008668;28;20022;-84
2022/01/28 04:48:05;;;;;;;63.30;49.90;;;;;;;;;;5003331;28;20030;-86
2022/01/28 04:50:48;;;;;;;56.72;48.38;;;;;;;;;;5007970;28;20121;-85
2022/01/28 04:53:28;;;;;;;55.42;49.30;;;;;;;;;;5011002;28;20022;-85
2022/01/28 04:58:41;;;;;;;56.97;48.75;;;;;;;;;;5008355;28;20066;-87
2022/01/28 05:01:35;;;;;;;57.60;49.17;;;;;;;;;;5009800;28;20272;-86
2022/01/28 05:11:52;;;;;;;70.07;49.17;;;;;;;;;;5016715;28;20101;-84
2022/01/28 05:17:03;;;;;;;64.77;49.80;;;;;;;;;;5015209;28;20041;-87
2022/01/28 05:27:26;;;;;;;60.70;49.47;;;;;;;;;;5002840;23;20039;-83
2022/01/28 05:29:51;;;;;;;58.95;48.55;;;;;;;;;;4971989;28;20499;-84
2022/01/28 05:32:17;;;;;;;57.33;48.93;;;;;;;;;;4961784;29;20035;-83
2022/01/28 05:34:42;;;;;;;58.43;49.60;;;;;;;;;;4956975;29;20027;-84
2022/01/28 05:37:08;;;;;;;63.90;49.78;;;;;;;;;;4956148;29;20030;-84
2022/01/28 05:39:33;;;;;;;60.73;49.27;;;;;;;;;;4977006;28;20036;-84
2022/01/28 05:41:59;;;;;;;66.88;48.63;;;;;;;;;;4980236;28;20023;-84
2022/01/28 05:44:26;;;;;;;90.10;53.83;;;;;;;;;;4977488;28;20101;-83
2022/01/28 05:46:52;;;;;;;57.42;50.97;;;;;;;;;;4977214;28;20110;-85
2022/01/28 05:49:18;;;;;;;59.25;49.88;;;;;;;;;;4980448;28;20024;-83
2022/01/28 05:51:43;;;;;;;56.27;48.77;;;;;;;;;;4983923;28;20114;-83
2022/01/28 05:54:08;;;;;;;69.87;50.03;;;;;;;;;;4986242;28;20033;-84
2022/01/28 05:56:34;;;;;;;61.73;48.83;;;;;;;;;;4984580;28;20014;-83
2022/01/28 05:58:59;;;;;;;62.07;51.03;;;;;;;;;;4991893;28;20027;-83
2022/01/28 06:01:24;;;;;;;70.90;50.27;;;;;;;;;;4991289;28;20090;-84
2022/01/28 06:03:49;;;;;;;63.77;48.83;;;;;;;;;;4989114;28;20019;-85
2022/01/28 06:06:23;;;;;;;63.40;49.37;;;;;;;;;;4984578;28;20034;-84
2022/01/28 06:08:53;;;;;;;68.45;50.88;;;;;;;;;;4979049;28;20394;-84
2022/01/28 06:11:18;;;;;;;74.53;51.90;;;;;;;;;;4975757;28;20039;-83
2022/01/28 06:13:43;;;;;;;64.13;51.27;;;;;;;;;;5008330;28;20031;-82
2022/01/28 06:16:09;;;;;;;71.67;49.83;;;;;;;;;;4984003;28;20029;-83
2022/01/28 06:18:35;;;;;;;65.15;51.38;;;;;;;;;;4986321;28;20386;-84
2022/01/28 06:21:00;;;;;;;56.80;49.60;;;;;;;;;;4978461;28;20093;-84
2022/01/28 06:23:25;;;;;;;63.20;49.67;;;;;;;;;;4976690;28;20018;-84
2022/01/28 06:25:51;;;;;;;58.00;49.23;;;;;;;;;;4984511;28;20670;-82
2022/01/28 06:28:16;;;;;;;73.87;50.57;;;;;;;;;;4978938;28;20073;-84
2022/01/28 06:30:41;;;;;;;59.97;49.27;;;;;;;;;;4974270;28;20106;-83
2022/01/28 06:33:06;;;;;;;61.87;49.57;;;;;;;;;;4978168;28;20033;-86
2022/01/28 06:35:32;;;;;;;62.10;48.97;;;;;;;;;;4984740;28;20027;-84
2022/01/28 06:37:57;;;;;;;61.63;49.73;;;;;;;;;;4981331;28;20041;-87
2022/01/28 06:40:22;;;;;;;64.43;50.43;;;;;;;;;;4981747;28;20035;-87
2022/01/28 06:43:21;;;;;;;67.00;51.23;;;;;;;;;;4981338;28;20078;-83
2022/01/28 06:48:45;;;;;;;77.80;53.28;;;;;;;;;;4962133;28;20035;-85
2022/01/28 06:51:10;;;;;;;66.45;50.15;;;;;;;;;;4961971;28;20028;-81
2022/01/28 06:53:36;;;;;;;65.03;49.30;;;;;;;;;;4975121;28;20066;-82
2022/01/28 06:56:38;;;;;;;66.87;50.53;;;;;;;;;;4982803;28;20418;-82
2022/01/28 07:02:01;;;;;;;70.53;51.88;;;;;;;;;;4909307;28;20036;-83
2022/01/28 07:04:26;;;;;;;72.23;51.53;;;;;;;;;;4970418;28;20011;-85
2022/01/28 07:07:16;;;;;;;;;;;;;;;;;;;;;
2022/01/28 07:09:42;;;;;;;69.22;51.08;;;;;;;;;;4982270;28;20110;-87
2022/01/28 07:12:10;;;;;;;59.67;50.30;;;;;;;;;;4978082;28;20491;-87
2022/01/28 07:14:35;;;;;;;64.43;49.90;;;;;;;;;;4977369;28;20031;-85
2022/01/28 07:17:16;;;;;;;61.13;48.85;;;;;;;;;;4975988;28;20030;-88
2022/01/28 07:19:45;;;;;;;62.25;49.88;;;;;;;;;;4971656;28;20031;-83
2022/01/28 07:22:10;;;;;;;64.20;51.53;;;;;;;;;;4968742;28;20022;-82
2022/01/28 07:24:35;;;;;;;64.13;50.07;;;;;;;;;;4978457;28;20082;-81
2022/01/28 07:27:01;;;;;;;70.37;51.60;;;;;;;;;;4975170;28;20511;-82
2022/01/28 07:29:29;;;;;;;73.87;53.77;;;;;;;;;;4975960;28;20020;-84
2022/01/28 07:31:55;;;;;;;73.65;50.90;;;;;;;;;;4975671;28;20023;-82
2022/01/28 07:34:20;;;;;;;65.45;50.08;;;;;;;;;;4977371;28;20026;-83
2022/01/28 07:36:45;;;;;;;64.80;49.97;;;;;;;;;;4979050;28;20029;-81
2022/01/28 07:39:10;;;;;;;63.87;49.10;;;;;;;;;;4986561;28;20011;-81
2022/01/28 07:41:37;;;;;;;67.63;50.43;;;;;;;;;;4991373;28;20015;-80
2022/01/28 07:44:02;;;;;;;83.97;54.35;;;;;;;;;;4981897;28;20050;-82
2022/01/28 07:46:27;;;;;;;59.67;49.50;;;;;;;;;;4986771;28;20031;-83
2022/01/28 07:48:52;;;;;;;69.40;51.87;;;;;;;;;;4987755;28;20046;-82
2022/01/28 07:51:18;;;;;;;61.00;49.03;;;;;;;;;;4985322;28;20026;-84
2022/01/28 07:53:43;;;;;;;56.83;49.10;;;;;;;;;;5006914;28;20026;-83
2022/01/28 07:56:11;;;;;;;54.40;48.57;;;;;;;;;;4984568;28;20046;-83
2022/01/28 07:58:36;;;;;;;71.32;53.45;;;;;;;;;;4981227;28;20277;-83
2022/01/28 08:01:01;;;;;;;55.07;49.23;;;;;;;;;;4978174;28;20027;-82
2022/01/28 08:03:26;;;;;;;62.53;50.57;;;;;;;;;;4982611;28;20019;-83
2022/01/28 08:05:51;;;;;;;58.67;49.30;;;;;;;;;;4984786;28;20023;-82
2022/01/28 08:08:20;;;;;;;58.83;50.03;;;;;;;;;;4986806;28;20307;-82
2022/01/28 08:10:46;;;;;;;55.72;49.45;;;;;;;;;;5003987;28;20504;-84
2022/01/28 08:13:11;;;;;;;87.72;53.63;;;;;;;;;;4978861;28;20019;-82
2022/01/28 08:15:39;;;;;;;58.60;49.73;;;;;;;;;;4968632;29;20062;-83
2022/01/28 08:18:04;;;;;;;57.03;49.20;;;;;;;;;;4986657;28;20019;-82
2022/01/28 08:20:30;;;;;;;63.60;50.60;;;;;;;;;;4986655;28;20034;-83
2022/01/28 08:22:58;;;;;;;60.20;50.23;;;;;;;;;;4986294;28;20011;-83
2022/01/28 08:25:24;;;;;;;58.97;50.13;;;;;;;;;;4989315;28;20026;-82
2022/01/28 08:27:50;;;;;;;64.07;51.33;;;;;;;;;;4985835;28;20031;-81
2022/01/28 08:30:16;;;;;;;69.32;51.95;;;;;;;;;;4977132;28;20023;-83
2022/01/28 08:32:41;;;;;;;68.15;52.00;;;;;;;;;;4976595;28;20030;-83
2022/01/28 08:35:06;;;;;;;64.00;50.73;;;;;;;;;;4982369;28;20030;-84
2022/01/28 08:37:32;;;;;;;73.23;53.00;;;;;;;;;;4976665;28;20166;-82
2022/01/28 08:39:57;;;;;;;67.77;51.63;;;;;;;;;;4979439;28;20081;-82
2022/01/28 08:42:22;;;;;;;68.70;52.73;;;;;;;;;;4972971;28;20027;-83
2022/01/28 08:44:47;;;;;;;58.93;51.30;;;;;;;;;;4976172;28;20026;-83
2022/01/28 08:47:13;;;;;;;63.20;52.27;;;;;;;;;;4984508;28;20038;-82
2022/01/28 08:49:38;;;;;;;63.80;51.73;;;;;;;;;;4988786;28;20115;-82
2022/01/28 08:52:04;;;;;;;66.90;52.53;;;;;;;;;;4979003;28;20022;-83
2022/01/28 08:54:29;;;;;;;81.30;56.13;;;;;;;;;;4987977;28;20089;-82
2022/01/28 08:56:54;;;;;;;69.30;53.77;;;;;;;;;;4974851;28;20019;-83
2022/01/28 08:59:19;;;;;;;72.40;53.47;;;;;;;;;;4978229;28;20023;-81
2022/01/28 09:01:45;;;;;;;65.07;52.20;;;;;;;;;;5004152;28;20018;-82
2022/01/28 09:04:10;;;;;;;71.97;51.63;;;;;;;;;;4978749;28;20028;-82
2022/01/28 09:06:35;;;;;;;56.33;50.27;;;;;;;;;;5005137;28;20022;-83
2022/01/28 09:09:02;;;;;;;64.70;51.43;;;;;;;;;;4978272;28;20019;-82
2022/01/28 09:13:53;;;;;;;65.80;53.13;;;;;;;;;;4987908;28;20027;-84
2022/01/28 09:16:20;;;;;;;66.97;50.70;;;;;;;;;;4986337;28;20033;-83
2022/01/28 09:18:45;;;;;;;61.60;51.35;;;;;;;;;;4981798;28;20050;-82
2022/01/28 09:21:11;;;;;;;69.47;54.10;;;;;;;;;;4983338;28;20021;-82
2022/01/28 09:23:36;;;;;;;68.57;52.03;;;;;;;;;;4980957;28;20030;-82
2022/01/28 09:26:01;;;;;;;62.23;50.90;;;;;;;;;;4968238;28;20479;-83
2022/01/28 09:28:27;;;;;;;68.57;51.27;;;;;;;;;;4973713;28;20125;-83
2022/01/28 09:30:52;;;;;;;60.60;50.87;;;;;;;;;;4985225;28;20026;-82
2022/01/28 09:33:18;;;;;;;63.03;51.15;;;;;;;;;;4981004;28;20027;-83
2022/01/28 09:35:43;;;;;;;67.37;50.80;;;;;;;;;;4988675;28;20031;-82
2022/01/28 09:38:09;;;;;;;71.73;52.10;;;;;;;;;;4985139;28;20054;-82
2022/01/28 09:40:34;;;;;;;55.27;49.33;;;;;;;;;;4983652;28;20023;-82
2022/01/28 09:43:01;;;;;;;55.83;49.40;;;;;;;;;;4978830;28;20237;-84
2022/01/28 09:45:28;;;;;;;63.15;50.50;;;;;;;;;;4982225;28;20018;-82
2022/01/28 09:47:56;;;;;;;59.03;49.67;;;;;;;;;;4983391;28;20042;-82
2022/01/28 09:50:22;;;;;;;64.03;49.60;;;;;;;;;;4980806;28;20030;-82
2022/01/28 09:52:48;;;;;;;62.13;50.75;;;;;;;;;;4972944;28;20031;-82
2022/01/28 09:55:13;;;;;;;56.03;48.95;;;;;;;;;;4976698;28;20030;-83
2022/01/28 09:57:38;;;;;;;62.67;49.83;;;;;;;;;;4980814;28;20499;-82
2022/01/28 10:00:05;;;;;;;62.53;51.97;;;;;;;;;;4982700;28;20023;-81
2022/01/28 10:02:47;;;;;;;63.60;50.85;;;;;;;;;;4983455;28;20029;-82
2022/01/28 10:05:20;;;;;;;66.68;50.78;;;;;;;;;;4969778;28;20102;-82
2022/01/28 10:08:22;;;;;;;54.88;49.05;;;;;;;;;;4976942;28;20019;-81
2022/01/28 10:10:51;;;;;;;56.65;49.53;;;;;;;;;;4930381;29;20034;-83
2022/01/28 10:13:49;;;;;;;59.20;49.90;;;;;;;;;;4974267;28;20054;-82
2022/01/28 10:16:19;;;;;;;54.88;48.80;;;;;;;;;;4984432;28;20027;-82
2022/01/28 10:18:55;;;;;;;65.40;49.22;;;;;;;;;;4975747;28;20029;-82
2022/01/28 10:21:20;;;;;;;55.67;49.40;;;;;;;;;;4982915;28;20023;-83
2022/01/28 10:23:55;;;;;;;56.00;48.50;;;;;;;;;;4974564;28;20027;-81
2022/01/28 10:26:30;;;;;;;63.75;48.78;;;;;;;;;;4986785;28;20015;-82
2022/01/28 10:28:56;;;;;;;55.65;48.90;;;;;;;;;;4984469;28;20111;-82
2022/01/28 10:31:21;;;;;;;61.10;48.60;;;;;;;;;;4987647;28;20027;-83
2022/01/28 10:33:46;;;;;;;61.63;49.47;;;;;;;;;;4978567;28;20033;-82
2022/01/28 10:36:19;;;;;;;62.27;50.57;;;;;;;;;;4970153;28;20022;-82
2022/01/28 10:38:44;;;;;;;58.63;49.00;;;;;;;;;;4977112;28;20081;-84
2022/01/28 10:41:14;;;;;;;56.03;49.88;;;;;;;;;;4985511;28;20027;-83
2022/01/28 10:43:47;;;;;;;56.83;48.30;;;;;;;;;;4985095;28;20030;-83
2022/01/28 10:46:14;;;;;;;57.00;50.17;;;;;;;;;;4983819;28;20019;-82
2022/01/28 10:48:51;;;;;;;55.90;50.15;;;;;;;;;;4977456;28;20117;-82
2022/01/28 10:51:39;;;;;;;57.17;49.55;;;;;;;;;;4978270;28;20031;-83
2022/01/28 10:54:11;;;;;;;56.92;49.25;;;;;;;;;;4969236;28;20034;-82
2022/01/28 10:56:53;;;;;;;65.18;49.22;;;;;;;;;;4967830;28;20059;-82
2022/01/28 10:59:26;;;;;;;55.42;49.05;;;;;;;;;;4974634;28;20031;-83
2022/01/28 11:01:52;;;;;;;55.97;49.92;;;;;;;;;;4969184;28;20054;-82
2022/01/28 11:04:18;;;;;;;61.50;50.73;;;;;;;;;;4973307;28;20482;-82
2022/01/28 11:06:44;;;;;;;56.50;49.13;;;;;;;;;;4991762;28;20050;-83
2022/01/28 11:09:09;;;;;;;59.65;49.72;;;;;;;;;;4983640;28;20086;-83
2022/01/28 11:11:36;;;;;;;73.90;50.83;;;;;;;;;;4985943;28;20028;-82
2022/01/28 11:14:02;;;;;;;55.85;49.88;;;;;;;;;;4967579;29;20027;-82
2022/01/28 11:16:27;;;;;;;59.78;49.05;;;;;;;;;;4972822;28;20061;-83
2022/01/28 11:18:54;;;;;;;62.03;51.57;;;;;;;;;;4987229;28;20466;-82
2022/01/28 11:21:27;;;;;;;55.95;49.38;;;;;;;;;;4985801;28;20045;-81
2022/01/28 11:23:55;;;;;;;57.70;50.95;;;;;;;;;;4987674;28;20003;-82
2022/01/28 11:26:35;;;;;;;60.85;50.42;;;;;;;;;;4988791;28;20022;-83
2022/01/28 11:31:26;;;;;;;;;;;;;;;;;;3186217;23;20086;-84
2022/01/28 11:33:51;;;;;;;60.72;50.88;;;;;;;;;;5006240;28;19914;-82
2022/01/28 11:36:31;;;;;;;64.93;50.33;;;;;;;;;;4988446;28;20019;-79
2022/01/28 11:38:56;;;;;;;54.35;48.58;;;;;;;;;;4990678;28;20015;-81
2022/01/28 11:41:24;;;;;;;55.87;49.90;;;;;;;;;;4985580;28;20045;-80
2022/01/28 11:43:53;;;;;;;56.17;50.15;;;;;;;;;;4980810;28;20026;-81
2022/01/28 11:46:23;;;;;;;55.17;48.95;;;;;;;;;;4990382;28;20014;-82
2022/01/28 11:48:51;;;;;;;57.67;50.15;;;;;;;;;;4990464;28;20023;-81
2022/01/28 11:51:20;;;;;;;58.25;49.92;;;;;;;;;;4985029;28;20033;-82
2022/01/28 11:53:53;;;;;;;55.50;49.38;;;;;;;;;;4992044;28;20027;-81
2022/01/28 11:56:18;;;;;;;65.60;50.40;;;;;;;;;;4989275;28;20023;-81
2022/01/28 11:58:50;;;;;;;55.80;49.67;;;;;;;;;;4991187;28;20026;-81
2022/01/28 12:01:16;;;;;;;55.35;49.30;;;;;;;;;;4988866;28;20033;-81
2022/01/28 12:03:41;;;;;;;60.83;49.78;;;;;;;;;;4983153;28;19999;-80
2022/01/28 12:06:09;;;;;;;63.47;50.80;;;;;;;;;;4999115;28;20033;-83
2022/01/28 12:08:38;;;;;;;55.00;49.22;;;;;;;;;;4998594;28;20007;-81
2022/01/28 12:11:07;;;;;;;61.17;52.53;;;;;;;;;;4995218;28;20018;-81
2022/01/28 12:13:46;;;;;;;69.25;51.17;;;;;;;;;;4985511;28;20038;-82
2022/01/28 12:16:13;;;;;;;56.00;49.90;;;;;;;;;;4998562;28;20030;-81
2022/01/28 12:18:48;;;;;;;56.80;49.78;;;;;;;;;;4998489;28;20214;-80
2022/01/28 12:21:27;;;;;;;57.20;51.05;;;;;;;;;;4994041;28;20010;-79
2022/01/28 12:23:54;;;;;;;61.83;50.65;;;;;;;;;;4997158;28;20025;-80
2022/01/28 12:26:19;;;;;;;59.13;49.35;;;;;;;;;;4996309;28;20023;-81
2022/01/28 12:28:46;;;;;;;62.10;50.50;;;;;;;;;;4996885;28;20049;-80
2022/01/28 12:31:15;;;;;;;56.00;49.92;;;;;;;;;;4993755;28;20027;-80
2022/01/28 12:33:51;;;;;;;61.75;50.35;;;;;;;;;;4982917;28;20015;-82
2022/01/28 12:36:18;;;;;;;57.80;51.47;;;;;;;;;;4992277;28;20501;-81
2022/01/28 12:38:55;;;;;;;58.95;49.22;;;;;;;;;;4990315;28;20122;-84
2022/01/28 12:41:23;;;;;;;58.97;50.08;;;;;;;;;;4976573;28;20058;-81
2022/01/28 12:43:48;;;;;;;55.65;49.67;;;;;;;;;;4982618;28;20049;-80
2022/01/28 12:46:15;;;;;;;55.77;50.10;;;;;;;;;;4988309;28;20085;-83
2022/01/28 12:48:54;;;;;;;58.40;52.00;;;;;;;;;;4989264;28;20019;-82
2022/01/28 12:51:21;;;;;;;57.50;50.13;;;;;;;;;;4984245;28;20062;-81
2022/01/28 12:53:54;;;;;;;56.28;50.20;;;;;;;;;;4978893;28;20023;-81
2022/01/28 12:56:29;;;;;;;61.10;50.83;;;;;;;;;;4988575;28;20075;-82
2022/01/28 12:58:55;;;;;;;56.88;49.13;;;;;;;;;;4986491;28;20023;-82
2022/01/28 13:01:20;;;;;;;55.93;50.27;;;;;;;;;;4983525;28;20084;-81
2022/01/28 13:03:54;;;;;;;58.83;49.70;;;;;;;;;;4980740;28;20011;-85
2022/01/28 13:08:59;;;;;;;62.25;49.90;;;;;;;;;;4991876;28;20019;-81
2022/01/28 13:11:25;;;;;;;62.80;51.03;;;;;;;;;;4986841;28;20030;-81
2022/01/28 13:13:54;;;;;;;56.13;50.00;;;;;;;;;;4987128;28;20400;-82
2022/01/28 13:16:33;;;;;;;62.22;50.60;;;;;;;;;;4985784;28;20043;-81
2022/01/28 13:18:59;;;;;;;56.63;49.58;;;;;;;;;;4988615;28;20517;-81
2022/01/28 13:21:24;;;;;;;69.72;50.35;;;;;;;;;;4977752;28;20038;-82
2022/01/28 13:24:02;;;;;;;70.47;51.37;;;;;;;;;;4975719;28;20023;-81
2022/01/28 13:26:27;;;;;;;58.17;50.78;;;;;;;;;;4988720;28;20042;-81
2022/01/28 13:29:03;;;;;;;60.67;49.87;;;;;;;;;;4997188;28;20011;-80
2022/01/28 13:31:29;;;;;;;66.13;50.50;;;;;;;;;;4976514;28;20034;-81
2022/01/28 13:33:58;;;;;;;65.65;49.42;;;;;;;;;;4985236;28;20011;-80
2022/01/28 13:36:23;;;;;;;63.53;49.75;;;;;;;;;;4989621;28;20082;-81
2022/01/28 13:38:49;;;;;;;64.30;49.67;;;;;;;;;;4988085;28;20030;-82
2022/01/28 13:41:17;;;;;;;60.07;49.93;;;;;;;;;;4984837;28;20054;-83
2022/01/28 13:43:42;;;;;;;62.40;50.35;;;;;;;;;;4988642;28;20023;-82
2022/01/28 13:46:12;;;;;;;56.33;50.40;;;;;;;;;;4989688;28;20023;-82
2022/01/28 13:48:38;;;;;;;59.13;50.97;;;;;;;;;;4990164;28;20099;-81
2022/01/28 13:51:16;;;;;;;62.35;50.47;;;;;;;;;;4995471;28;20034;-81
2022/01/28 13:56:28;;;;;;;59.15;50.28;;;;;;;;;;4998975;28;20074;-81
2022/01/28 13:58:53;;;;;;;57.60;49.22;;;;;;;;;;4998368;28;20046;-79
2022/01/28 14:01:23;;;;;;;55.53;49.80;;;;;;;;;;4990323;28;20054;-81
2022/01/28 14:03:53;;;;;;;55.30;49.35;;;;;;;;;;4986156;28;20022;-80
2022/01/28 14:06:19;;;;;;;56.47;49.67;;;;;;;;;;4989438;28;20031;-83
2022/01/28 14:08:53;;;;;;;54.70;49.08;;;;;;;;;;4987306;28;20023;-80
2022/01/28 14:11:34;;;;;;;66.25;51.03;;;;;;;;;;4985767;28;20049;-81
2022/01/28 14:16:56;;;;;;;57.20;50.67;;;;;;;;;;4969276;29;20057;-82
2022/01/28 14:19:22;;;;;;;62.87;50.90;;;;;;;;;;4990201;28;20027;-82
2022/01/28 14:21:48;;;;;;;55.58;49.92;;;;;;;;;;4977024;28;20027;-81
2022/01/28 14:24:14;;;;;;;60.22;50.17;;;;;;;;;;4978459;28;20082;-80
2022/01/28 14:26:42;;;;;;;55.33;48.78;;;;;;;;;;4967130;29;20074;-84
2022/01/28 14:29:56;;;;;;;58.15;50.25;;;;;;;;;;4973255;28;20090;-82
2022/01/28 14:31:54;;;;;;;58.50;49.03;;;;;;;;;;4970331;28;20034;-82
2022/01/28 14:34:19;;;;;;;57.47;49.43;;;;;;;;;;4976007;28;20027;-82
2022/01/28 14:36:45;;;;;;;70.80;50.93;;;;;;;;;;4987666;28;20023;-83
2022/01/28 14:39:10;;;;;;;55.97;49.83;;;;;;;;;;4991357;28;20265;-79
2022/01/28 14:41:36;;;;;;;62.90;50.77;;;;;;;;;;4993381;28;20066;-82
2022/01/28 14:44:03;;;;;;;55.78;49.42;;;;;;;;;;4988699;28;20003;-81
2022/01/28 14:46:28;;;;;;;56.70;49.30;;;;;;;;;;4998172;28;20015;-81
2022/01/28 14:48:54;;;;;;;54.50;48.77;;;;;;;;;;4998020;28;20022;-81
2022/01/28 14:51:19;;;;;;;54.17;48.47;;;;;;;;;;4990346;28;20039;-80
2022/01/28 14:53:44;;;;;;;59.53;48.90;;;;;;;;;;4981272;28;20051;-79
2022/01/28 14:56:10;;;;;;;53.40;47.90;;;;;;;;;;4995797;28;20023;-80
2022/01/28 14:58:35;;;;;;;63.67;48.73;;;;;;;;;;4997088;28;20034;-81
2022/01/28 15:01:00;;;;;;;58.50;49.20;;;;;;;;;;4982191;28;20083;-83
2022/01/28 15:03:25;;;;;;;55.83;50.20;;;;;;;;;;4991754;28;20053;-81
2022/01/28 15:05:50;;;;;;;55.57;48.43;;;;;;;;;;4979115;28;20091;-81
2022/01/28 15:08:25;;;;;;;56.23;49.17;;;;;;;;;;4969236;28;20031;-82
2022/01/28 15:10:52;;;;;;;56.38;49.67;;;;;;;;;;4985654;28;20034;-82
2022/01/28 15:13:18;;;;;;;55.63;48.58;;;;;;;;;;4980423;28;20052;-83
2022/01/28 15:15:43;;;;;;;57.97;49.93;;;;;;;;;;4988811;28;20018;-81
2022/01/28 15:18:08;;;;;;;57.07;49.00;;;;;;;;;;4988485;28;20034;-81
2022/01/28 15:20:34;;;;;;;54.73;48.43;;;;;;;;;;4984880;28;20154;-82
2022/01/28 15:22:59;;;;;;;53.97;47.83;;;;;;;;;;4971218;28;20395;-81
2022/01/28 15:25:25;;;;;;;60.50;49.73;;;;;;;;;;4984373;28;20031;-82
2022/01/28 15:27:51;;;;;;;54.57;48.73;;;;;;;;;;4987080;28;20027;-82
2022/01/28 15:35:57;;;;;;;54.38;48.15;;;;;;;;;;4978918;28;20034;-81
2022/01/28 15:38:23;;;;;;;55.30;48.85;;;;;;;;;;4985302;28;20018;-82
2022/01/28 15:40:48;;;;;;;59.70;49.73;;;;;;;;;;4980444;28;20029;-82
2022/01/28 15:43:13;;;;;;;63.60;49.23;;;;;;;;;;4983146;28;20030;-81
2022/01/28 15:45:40;;;;;;;54.77;48.97;;;;;;;;;;4975548;28;20062;-83
2022/01/28 15:48:05;;;;;;;;;;;;;;;;;;4987601;28;20043;-82
2022/01/28 15:50:30;;;;;;;60.08;50.47;;;;;;;;;;5000230;28;20002;-82
2022/01/28 15:52:56;;;;;;;56.27;48.17;;;;;;;;;;4977480;28;20023;-81
2022/01/28 15:55:22;;;;;;;53.22;47.70;;;;;;;;;;4981206;28;20023;-81
2022/01/28 15:57:47;;;;;;;55.07;49.13;;;;;;;;;;4990233;28;20051;-83
2022/01/28 16:00:13;;;;;;;66.83;51.90;;;;;;;;;;4990872;28;20022;-82
2022/01/28 16:02:38;;;;;;;62.45;49.28;;;;;;;;;;4985784;28;20003;-81